createdAt,value
2023-01-26T00:01:08.627Z,0.06
2023-01-26T00:03:35.238Z,-0.05
2023-01-26T00:06:10.356Z,-0.14
2023-01-26T00:08:42.333Z,-0.10
2023-01-26T00:11:11.501Z,-0.14
2023-01-26T00:13:38.731Z,-0.13
2023-01-26T00:16:09.761Z,-0.23
2023-01-26T00:18:39.094Z,-0.19
2023-01-26T00:21:07.358Z,-0.37
2023-01-26T00:23:35.131Z,-0.31
2023-01-26T00:26:02.861Z,-0.30
2023-01-26T00:28:29.488Z,-0.29
2023-01-26T00:31:10.900Z,-0.35
2023-01-26T00:33:37.395Z,-0.40
2023-01-26T00:36:04.268Z,-0.36
2023-01-26T00:38:30.714Z,-0.40
2023-01-26T00:40:57.251Z,-0.42
2023-01-26T00:43:23.645Z,-0.45
2023-01-26T00:45:50.407Z,-0.45
2023-01-26T00:48:17.153Z,-0.45
2023-01-26T00:50:43.897Z,-0.44
2023-01-26T00:53:11.234Z,-0.41
2023-01-26T00:55:41.210Z,-0.44
2023-01-26T00:58:08.814Z,-0.47
2023-01-26T01:00:38.745Z,-0.53
2023-01-26T01:03:07.414Z,-0.44
2023-01-26T01:05:34.970Z,-0.51
2023-01-26T01:08:02.045Z,-0.52
2023-01-26T01:10:28.794Z,-0.49
2023-01-26T01:12:56.133Z,-0.55
2023-01-26T01:15:22.712Z,-0.55
2023-01-26T01:17:49.290Z,-0.56
2023-01-26T01:20:16.040Z,-0.51
2023-01-26T01:22:42.658Z,-0.50
2023-01-26T01:25:11.240Z,-0.51
2023-01-26T01:27:37.749Z,-0.50
2023-01-26T01:30:05.336Z,-0.47
2023-01-26T01:32:31.986Z,-0.44
2023-01-26T01:34:58.488Z,-0.43
2023-01-26T01:37:24.992Z,-0.48
2023-01-26T01:39:51.532Z,-0.49
2023-01-26T01:42:18.019Z,-0.54
2023-01-26T01:45:09.037Z,-0.51
2023-01-26T01:47:35.481Z,-0.53
2023-01-26T01:50:02.491Z,-0.58
2023-01-26T01:52:31.591Z,-0.53
2023-01-26T01:55:05.853Z,-0.57
2023-01-26T01:57:36.928Z,-0.62
2023-01-26T02:00:10.506Z,-0.61
2023-01-26T02:02:38.225Z,-0.62
2023-01-26T02:05:17.047Z,-0.60
2023-01-26T02:07:44.174Z,-0.59
2023-01-26T02:10:11.437Z,-0.61
2023-01-26T02:12:38.471Z,-0.63
2023-01-26T02:15:05.345Z,-0.55
2023-01-26T02:17:32.121Z,-0.65
2023-01-26T02:20:13.134Z,-0.64
2023-01-26T02:22:49.342Z,-0.62
2023-01-26T02:25:51.188Z,-0.57
2023-01-26T02:28:20.702Z,-0.57
2023-01-26T02:30:47.294Z,-0.58
2023-01-26T02:33:20.386Z,-0.65
2023-01-26T02:35:46.905Z,-0.63
2023-01-26T02:38:13.411Z,-0.59
2023-01-26T02:40:55.233Z,-0.64
2023-01-26T02:43:25.057Z,-0.57
2023-01-26T02:45:51.685Z,-0.56
2023-01-26T02:48:20.809Z,-0.55
2023-01-26T02:50:47.245Z,-0.62
2023-01-26T02:53:13.987Z,-0.63
2023-01-26T02:55:40.411Z,-0.63
2023-01-26T02:58:07.099Z,-0.59
2023-01-26T03:00:36.168Z,-0.60
2023-01-26T03:03:10.025Z,-0.63
2023-01-26T03:05:37.097Z,-0.61
2023-01-26T03:08:03.572Z,-0.61
2023-01-26T03:10:29.982Z,-0.58
2023-01-26T03:12:56.408Z,-0.60
2023-01-26T03:15:22.811Z,-0.63
2023-01-26T03:17:49.442Z,-0.61
2023-01-26T03:20:16.098Z,-0.67
2023-01-26T03:22:42.426Z,-0.68
2023-01-26T03:25:09.617Z,-0.54
2023-01-26T03:27:48.459Z,-0.55
2023-01-26T03:30:18.309Z,-0.56
2023-01-26T03:32:45.059Z,-0.49
2023-01-26T03:35:11.481Z,-0.53
2023-01-26T03:37:38.087Z,-0.60
2023-01-26T03:40:05.827Z,-0.47
2023-01-26T03:42:32.301Z,-0.55
2023-01-26T03:44:58.624Z,-0.60
2023-01-26T03:47:25.054Z,-0.62
2023-01-26T03:49:51.532Z,-0.58
2023-01-26T03:52:17.947Z,-0.59
2023-01-26T03:54:44.452Z,-0.57
2023-01-26T03:57:11.462Z,-0.54
2023-01-26T03:59:38.004Z,-0.45
2023-01-26T04:02:09.612Z,-0.42
2023-01-26T04:04:36.110Z,-0.45
2023-01-26T04:07:02.625Z,-0.38
2023-01-26T04:09:29.910Z,-0.40
2023-01-26T04:11:56.338Z,-0.38
2023-01-26T04:14:23.025Z,-0.47
2023-01-26T04:16:49.367Z,-0.54
2023-01-26T04:19:15.786Z,-0.62
2023-01-26T04:21:42.270Z,-0.61
2023-01-26T04:24:08.821Z,-0.61
2023-01-26T04:26:36.970Z,-0.64
2023-01-26T04:29:14.983Z,-0.63
2023-01-26T04:31:42.192Z,-0.57
2023-01-26T04:34:14.525Z,-0.68
2023-01-26T04:36:42.049Z,-0.73
2023-01-26T04:39:09.008Z,-0.63
2023-01-26T04:41:36.548Z,-0.54
2023-01-26T04:44:03.041Z,-0.49
2023-01-26T04:46:29.752Z,-0.45
2023-01-26T04:48:56.619Z,-0.51
2023-01-26T04:51:23.283Z,-0.43
2023-01-26T04:53:50.310Z,-0.47
2023-01-26T04:56:29.927Z,-0.41
2023-01-26T04:58:59.456Z,-0.47
2023-01-26T05:01:26.230Z,-0.45
2023-01-26T05:03:53.760Z,-0.51
2023-01-26T05:06:21.043Z,-0.48
2023-01-26T05:08:47.570Z,-0.42
2023-01-26T05:11:14.007Z,-0.38
2023-01-26T05:13:40.457Z,-0.41
2023-01-26T05:16:07.421Z,-0.46
2023-01-26T05:18:34.040Z,-0.51
2023-01-26T05:21:00.807Z,-0.52
2023-01-26T05:23:28.346Z,-0.48
2023-01-26T05:25:55.308Z,-0.51
2023-01-26T05:28:21.951Z,-0.51
2023-01-26T05:30:49.374Z,-0.48
2023-01-26T05:33:16.157Z,-0.52
2023-01-26T05:35:42.974Z,-0.49
2023-01-26T05:38:09.496Z,-0.47
2023-01-26T05:40:36.110Z,-0.51
2023-01-26T05:43:03.638Z,-0.49
2023-01-26T05:45:30.319Z,-0.48
2023-01-26T05:47:56.768Z,-0.49
2023-01-26T05:50:23.140Z,-0.53
2023-01-26T05:52:49.564Z,-0.53
2023-01-26T05:55:16.171Z,-0.54
2023-01-26T05:57:42.638Z,-0.56
2023-01-26T06:00:10.871Z,-0.56
2023-01-26T06:02:37.604Z,-0.58
2023-01-26T06:05:05.249Z,-0.56
2023-01-26T06:07:32.342Z,-0.52
2023-01-26T06:09:59.019Z,-0.55
2023-01-26T06:12:25.534Z,-0.63
2023-01-26T06:14:51.947Z,-0.59
2023-01-26T06:17:18.790Z,-0.64
2023-01-26T06:19:45.299Z,-0.61
2023-01-26T06:22:13.583Z,-0.59
2023-01-26T06:24:41.219Z,-0.64
2023-01-26T06:27:12.900Z,-0.64
2023-01-26T06:29:39.416Z,-0.66
2023-01-26T06:32:06.429Z,-0.63
2023-01-26T06:34:33.213Z,-0.65
2023-01-26T06:36:59.768Z,-0.65
2023-01-26T06:39:26.262Z,-0.67
2023-01-26T06:41:52.864Z,-0.70
2023-01-26T06:44:19.409Z,-0.66
2023-01-26T06:46:45.930Z,-0.64
2023-01-26T06:49:12.704Z,-0.63
2023-01-26T06:51:42.824Z,-0.65
2023-01-26T06:54:11.315Z,-0.69
2023-01-26T06:56:38.022Z,-0.68
2023-01-26T06:59:05.302Z,-0.66
2023-01-26T07:01:37.640Z,-0.67
2023-01-26T07:04:04.159Z,-0.67
2023-01-26T07:06:30.615Z,-0.70
2023-01-26T07:08:57.276Z,-0.65
2023-01-26T07:11:24.833Z,-0.63
2023-01-26T07:13:51.623Z,-0.61
2023-01-26T07:16:19.893Z,-0.62
2023-01-26T07:18:47.550Z,-0.65
2023-01-26T07:21:16.932Z,-0.63
2023-01-26T07:23:43.714Z,-0.65
2023-01-26T07:26:10.745Z,-0.63
2023-01-26T07:28:40.019Z,-0.62
2023-01-26T07:31:10.553Z,-0.62
2023-01-26T07:33:37.208Z,-0.64
2023-01-26T07:36:04.101Z,-0.62
2023-01-26T07:38:30.838Z,-0.67
2023-01-26T07:40:57.647Z,-0.64
2023-01-26T07:43:24.479Z,-0.64
2023-01-26T07:45:54.852Z,-0.67
2023-01-26T07:48:24.056Z,-0.70
2023-01-26T07:50:51.303Z,-0.70
2023-01-26T07:53:19.100Z,-0.72
2023-01-26T07:55:46.781Z,-0.71
2023-01-26T07:58:13.221Z,-0.70
2023-01-26T08:00:39.734Z,-0.71
2023-01-26T08:03:06.518Z,-0.66
2023-01-26T08:05:33.664Z,-0.64
2023-01-26T08:08:00.732Z,-0.71
2023-01-26T08:10:30.824Z,-0.66
2023-01-26T08:13:00.105Z,-0.63
2023-01-26T08:15:27.100Z,-0.67
2023-01-26T08:17:54.711Z,-0.63
2023-01-26T08:20:21.278Z,-0.62
2023-01-26T08:22:47.695Z,-0.58
2023-01-26T08:25:14.241Z,-0.60
2023-01-26T08:27:40.701Z,-0.67
2023-01-26T08:30:07.941Z,-0.59
2023-01-26T08:32:34.590Z,-0.54
2023-01-26T08:35:01.123Z,-0.51
2023-01-26T08:37:27.573Z,-0.62
2023-01-26T08:39:54.060Z,-0.61
2023-01-26T08:42:22.763Z,-0.58
2023-01-26T08:44:49.509Z,-0.59
2023-01-26T08:47:15.891Z,-0.62
2023-01-26T08:49:42.333Z,-0.60
2023-01-26T08:52:09.045Z,-0.59
2023-01-26T08:54:35.499Z,-0.57
2023-01-26T08:57:01.969Z,-0.58
2023-01-26T08:59:28.557Z,-0.60
2023-01-26T09:01:55.083Z,-0.49
2023-01-26T09:04:21.671Z,-0.55
2023-01-26T09:06:48.095Z,-0.52
2023-01-26T09:09:14.602Z,-0.47
2023-01-26T09:11:41.117Z,-0.44
2023-01-26T09:14:07.627Z,-0.49
2023-01-26T09:16:34.345Z,-0.39
2023-01-26T09:19:00.919Z,-0.44
2023-01-26T09:21:27.503Z,-0.35
2023-01-26T09:23:58.463Z,-0.48
2023-01-26T09:26:24.962Z,-0.49
2023-01-26T09:28:52.680Z,-0.47
2023-01-26T09:31:19.477Z,-0.47
2023-01-26T09:33:46.196Z,-0.51
2023-01-26T09:36:12.718Z,-0.52
2023-01-26T09:38:40.368Z,-0.54
2023-01-26T09:41:34.625Z,-0.53
2023-01-26T09:44:06.037Z,-0.48
2023-01-26T09:46:46.431Z,-0.39
2023-01-26T09:49:28.387Z,-0.36
2023-01-26T09:52:14.785Z,-0.49
2023-01-26T09:54:52.014Z,-0.44
2023-01-26T09:57:41.781Z,-0.47
2023-01-26T10:00:33.812Z,-0.62
2023-01-26T10:03:29.324Z,-0.56
2023-01-26T10:06:05.235Z,-0.57
2023-01-26T10:08:31.791Z,-0.71
2023-01-26T10:11:10.054Z,-0.65
2023-01-26T10:13:36.921Z,-0.70
2023-01-26T10:16:08.800Z,-0.67
2023-01-26T10:18:53.453Z,-0.63
2023-01-26T10:21:28.980Z,-0.58
2023-01-26T10:23:58.698Z,-0.57
2023-01-26T10:26:31.074Z,-0.58
2023-01-26T10:28:58.174Z,-0.58
2023-01-26T10:31:30.584Z,-0.59
2023-01-26T10:34:00.714Z,-0.60
2023-01-26T10:36:31.658Z,-0.49
2023-01-26T10:39:08.062Z,-0.51
2023-01-26T10:41:35.249Z,-0.41
2023-01-26T10:44:13.204Z,-0.27
2023-01-26T10:46:42.509Z,-0.33
2023-01-26T10:49:09.148Z,-0.31
2023-01-26T10:51:37.706Z,-0.30
2023-01-26T10:54:23.606Z,-0.24
2023-01-26T10:56:51.990Z,-0.29
2023-01-26T10:59:30.103Z,-0.35
2023-01-26T11:02:00.383Z,-0.32
2023-01-26T11:04:28.268Z,-0.25
2023-01-26T11:06:54.992Z,-0.29
2023-01-26T11:09:27.713Z,-0.58
2023-01-26T11:12:04.549Z,-0.56
2023-01-26T11:14:32.319Z,-0.44
2023-01-26T11:17:01.721Z,-0.54
2023-01-26T11:19:50.754Z,-0.51
2023-01-26T11:22:39.216Z,-0.61
2023-01-26T11:25:48.507Z,-0.70
2023-01-26T11:28:52.684Z,-0.64
2023-01-26T11:31:46.021Z,-0.57
2023-01-26T11:34:16.509Z,-0.52
2023-01-26T11:36:57.905Z,-0.48
2023-01-26T11:39:30.131Z,-0.54
2023-01-26T11:42:21.898Z,-0.63
2023-01-26T11:44:57.620Z,-0.67
2023-01-26T11:48:08.208Z,-0.68
2023-01-26T11:50:45.895Z,-0.65
2023-01-26T11:53:30.204Z,-0.65
2023-01-26T11:56:16.553Z,-0.64
2023-01-26T11:58:57.431Z,-0.67
2023-01-26T12:01:28.207Z,-0.75
2023-01-26T12:03:55.542Z,-0.64
2023-01-26T12:06:39.719Z,-0.59
2023-01-26T12:09:23.329Z,-0.54
2023-01-26T12:12:00.348Z,-0.48
2023-01-26T12:14:36.683Z,-0.50
2023-01-26T12:17:18.674Z,-0.48
2023-01-26T12:19:53.964Z,-0.61
2023-01-26T12:22:34.512Z,-0.54
2023-01-26T12:25:20.507Z,-0.62
2023-01-26T12:27:58.782Z,-0.71
2023-01-26T12:30:43.663Z,-0.75
2023-01-26T12:33:10.942Z,-0.65
2023-01-26T12:35:58.361Z,-0.57
2023-01-26T12:38:43.160Z,-0.56
2023-01-26T12:41:37.717Z,-0.53
2023-01-26T12:44:32.657Z,-0.43
2023-01-26T12:47:38.445Z,-0.36
2023-01-26T12:50:37.448Z,-0.54
2023-01-26T12:53:28.680Z,-0.43
2023-01-26T12:56:29.166Z,-0.47
2023-01-26T12:58:58.301Z,-0.42
2023-01-26T13:01:37.167Z,-0.51
2023-01-26T13:04:10.915Z,-0.57
2023-01-26T13:06:37.461Z,-0.64
2023-01-26T13:09:25.799Z,-0.64
2023-01-26T13:11:59.530Z,-0.54
2023-01-26T13:14:32.807Z,-0.61
2023-01-26T13:17:23.419Z,-0.70
2023-01-26T13:19:54.668Z,-0.72
2023-01-26T13:22:24.926Z,-0.78
2023-01-26T13:25:16.252Z,-0.80
2023-01-26T13:27:47.409Z,-0.64
2023-01-26T13:30:25.877Z,-0.70
2023-01-26T13:33:04.237Z,-0.70
2023-01-26T13:35:31.491Z,-0.66
2023-01-26T13:38:05.194Z,-0.61
2023-01-26T13:40:35.625Z,-0.68
2023-01-26T13:43:27.207Z,-0.63
2023-01-26T13:46:12.568Z,-0.54
2023-01-26T13:48:52.308Z,-0.54
2023-01-26T13:51:26.718Z,-0.53
2023-01-26T13:54:13.619Z,-0.61
2023-01-26T13:56:43.937Z,-0.55
2023-01-26T13:59:13.214Z,-0.49
2023-01-26T14:01:54.721Z,-0.59
2023-01-26T14:04:23.969Z,-0.59
2023-01-26T14:07:04.289Z,-0.55
2023-01-26T14:09:34.683Z,-0.63
2023-01-26T14:12:04.970Z,-0.64
2023-01-26T14:14:36.224Z,-0.63
2023-01-26T14:17:27.718Z,-0.69
2023-01-26T14:19:54.392Z,-0.64
2023-01-26T14:22:22.562Z,-0.72
2023-01-26T14:24:50.957Z,-0.66
2023-01-26T14:27:37.973Z,-0.70
2023-01-26T14:30:28.115Z,-0.67
2023-01-26T14:33:01.996Z,-0.62
2023-01-26T14:35:28.947Z,-0.64
2023-01-26T14:38:13.640Z,-0.58
2023-01-26T14:40:53.873Z,-0.58
2023-01-26T14:43:22.259Z,-0.56
2023-01-26T14:46:10.308Z,-0.56
2023-01-26T14:49:02.071Z,-0.64
2023-01-26T14:51:31.311Z,-0.59
2023-01-26T14:54:05.054Z,-0.62
2023-01-26T14:56:38.282Z,-0.68
2023-01-26T14:59:08.592Z,-0.82
2023-01-26T15:01:35.401Z,-0.74
2023-01-26T15:04:21.197Z,-0.70
2023-01-26T15:06:47.622Z,-0.65
2023-01-26T15:09:20.795Z,-0.64
2023-01-26T15:11:56.041Z,-0.62
2023-01-26T15:14:48.560Z,-0.64
2023-01-26T15:17:36.559Z,-0.76
2023-01-26T15:20:25.597Z,-0.76
2023-01-26T15:22:53.888Z,-0.74
2023-01-26T15:25:28.697Z,-0.76
2023-01-26T15:27:58.765Z,-0.74
2023-01-26T15:30:31.494Z,-0.81
2023-01-26T15:32:58.426Z,-0.78
2023-01-26T15:35:34.635Z,-0.88
2023-01-26T15:38:04.260Z,-0.91
2023-01-26T15:40:31.969Z,-0.96
2023-01-26T15:43:10.449Z,-0.96
2023-01-26T15:45:37.534Z,-0.93
2023-01-26T15:48:04.281Z,-0.97
2023-01-26T15:50:30.722Z,-0.99
2023-01-26T15:52:57.095Z,-1.02
2023-01-26T15:55:30.931Z,-0.99
2023-01-26T15:57:57.346Z,-1.01
2023-01-26T16:00:24.132Z,-1.05
2023-01-26T16:02:51.245Z,-1.02
2023-01-26T16:05:22.997Z,-1.03
2023-01-26T16:07:49.592Z,-0.98
2023-01-26T16:10:18.404Z,-0.96
2023-01-26T16:12:47.333Z,-1.01
2023-01-26T16:15:48.101Z,-1.06
2023-01-26T16:18:15.694Z,-1.07
2023-01-26T16:20:44.482Z,-1.08
2023-01-26T16:23:17.951Z,-1.04
2023-01-26T16:25:44.462Z,-1.04
2023-01-26T16:28:10.884Z,-1.07
2023-01-26T16:30:37.464Z,-1.06
2023-01-26T16:33:04.438Z,-0.99
2023-01-26T16:35:31.189Z,-1.02
2023-01-26T16:37:57.706Z,-0.99
2023-01-26T16:40:24.133Z,-0.98
2023-01-26T16:42:53.446Z,-0.98
2023-01-26T16:45:24.790Z,-1.02
2023-01-26T16:47:53.715Z,-1.02
2023-01-26T16:50:20.276Z,-1.03
2023-01-26T16:52:46.980Z,-1.00
2023-01-26T16:55:14.692Z,-0.99
2023-01-26T16:57:42.222Z,-1.00
2023-01-26T17:00:13.776Z,-0.96
2023-01-26T17:02:41.946Z,-1.05
2023-01-26T17:05:16.962Z,-1.06
2023-01-26T17:07:43.674Z,-1.04
2023-01-26T17:10:11.828Z,-1.03
2023-01-26T17:12:38.472Z,-1.02
2023-01-26T17:15:06.150Z,-1.07
2023-01-26T17:17:32.706Z,-1.05
2023-01-26T17:20:18.003Z,-1.05
2023-01-26T17:22:46.088Z,-1.04
2023-01-26T17:25:15.981Z,-1.05
2023-01-26T17:27:43.687Z,-1.07
2023-01-26T17:30:11.959Z,-1.05
2023-01-26T17:32:38.405Z,-1.02
2023-01-26T17:35:05.162Z,-1.00
2023-01-26T17:37:31.700Z,-1.00
2023-01-26T17:39:58.040Z,-1.01
2023-01-26T17:42:24.459Z,-1.03
2023-01-26T17:44:51.144Z,-1.09
2023-01-26T17:47:17.543Z,-1.06
2023-01-26T17:49:43.975Z,-1.04
2023-01-26T17:52:10.320Z,-1.00
2023-01-26T17:54:36.692Z,-1.02
2023-01-26T17:57:03.333Z,-1.05
2023-01-26T17:59:29.677Z,-1.02
2023-01-26T18:01:56.212Z,-1.03
2023-01-26T18:04:22.837Z,-1.01
2023-01-26T18:06:49.347Z,-1.02
2023-01-26T18:09:15.905Z,-1.00
2023-01-26T18:11:42.311Z,-1.03
2023-01-26T18:14:08.829Z,-1.05
2023-01-26T18:16:36.237Z,-1.03
2023-01-26T18:19:02.718Z,-0.98
2023-01-26T18:21:29.793Z,-0.96
2023-01-26T18:24:00.188Z,-0.96
2023-01-26T18:26:29.571Z,-0.97
2023-01-26T18:28:55.987Z,-0.95
2023-01-26T18:31:27.980Z,-0.93
2023-01-26T18:33:56.270Z,-0.97
2023-01-26T18:36:22.941Z,-0.98
2023-01-26T18:39:03.080Z,-0.97
2023-01-26T18:41:29.891Z,-0.97
2023-01-26T18:43:57.237Z,-1.00
2023-01-26T18:46:24.566Z,-1.03
2023-01-26T18:48:56.282Z,-1.04
2023-01-26T18:51:22.718Z,-1.03
2023-01-26T18:53:49.137Z,-1.05
2023-01-26T18:56:17.509Z,-1.05
2023-01-26T18:58:44.525Z,-1.03
2023-01-26T19:01:15.930Z,-1.02
2023-01-26T19:03:43.527Z,-1.08
2023-01-26T19:06:09.933Z,-1.08
2023-01-26T19:08:36.695Z,-1.11
2023-01-26T19:11:07.370Z,-1.09
2023-01-26T19:13:35.665Z,-1.18
2023-01-26T19:16:02.971Z,-1.17
2023-01-26T19:18:29.490Z,-1.22
2023-01-26T19:20:57.895Z,-1.22
2023-01-26T19:23:24.688Z,-1.29
2023-01-26T19:25:51.036Z,-1.34
2023-01-26T19:28:17.965Z,-1.42
2023-01-26T19:30:44.699Z,-1.52
2023-01-26T19:33:11.463Z,-1.52
2023-01-26T19:35:38.746Z,-1.55
2023-01-26T19:38:05.799Z,-1.50
2023-01-26T19:40:33.544Z,-1.50
2023-01-26T19:42:59.970Z,-1.55
2023-01-26T19:45:26.588Z,-1.63
2023-01-26T19:47:53.181Z,-1.63
2023-01-26T19:50:19.784Z,-1.62
2023-01-26T19:52:46.173Z,-1.70
2023-01-26T19:55:13.037Z,-1.68
2023-01-26T19:57:39.613Z,-1.70
2023-01-26T20:00:06.868Z,-1.73
2023-01-26T20:02:33.730Z,-1.73
2023-01-26T20:05:00.136Z,-1.77
2023-01-26T20:07:26.503Z,-1.78
2023-01-26T20:09:52.890Z,-1.74
2023-01-26T20:12:19.506Z,-1.68
2023-01-26T20:14:46.125Z,-1.71
2023-01-26T20:17:13.784Z,-1.68
2023-01-26T20:19:40.218Z,-1.67
2023-01-26T20:22:06.761Z,-1.64
2023-01-26T20:24:34.262Z,-1.71
2023-01-26T20:27:00.695Z,-1.73
2023-01-26T20:29:27.079Z,-1.69
2023-01-26T20:31:53.642Z,-1.73
2023-01-26T20:34:20.086Z,-1.73
2023-01-26T20:36:46.735Z,-1.67
2023-01-26T20:39:16.267Z,-1.65
2023-01-26T20:41:42.792Z,-1.60
2023-01-26T20:44:10.282Z,-1.58
2023-01-26T20:46:39.352Z,-1.59
2023-01-26T20:49:10.649Z,-1.67
2023-01-26T20:51:37.639Z,-1.78
2023-01-26T20:54:07.482Z,-1.74
2023-01-26T20:56:34.473Z,-1.78
2023-01-26T20:59:01.684Z,-1.73
2023-01-26T21:01:28.404Z,-1.73
2023-01-26T21:03:55.258Z,-1.73
2023-01-26T21:06:22.654Z,-1.77
2023-01-26T21:08:52.626Z,-1.75
2023-01-26T21:11:20.358Z,-1.72
2023-01-26T21:13:46.818Z,-1.76
2023-01-26T21:16:16.743Z,-1.81
2023-01-26T21:18:43.459Z,-1.88
2023-01-26T21:21:13.470Z,-1.91
2023-01-26T21:23:40.427Z,-1.91
2023-01-26T21:26:10.398Z,-1.91
2023-01-26T21:28:36.787Z,-1.93
2023-01-26T21:31:04.758Z,-1.94
2023-01-26T21:33:32.545Z,-1.91
2023-01-26T21:36:01.429Z,-1.93
2023-01-26T21:38:30.873Z,-1.90
2023-01-26T21:41:05.682Z,-1.89
2023-01-26T21:43:32.089Z,-1.94
2023-01-26T21:45:59.045Z,-1.88
2023-01-26T21:48:25.768Z,-1.95
2023-01-26T21:50:56.094Z,-1.94
2023-01-26T21:53:22.703Z,-1.97
2023-01-26T21:55:49.119Z,-1.98
2023-01-26T21:58:15.853Z,-2.00
2023-01-26T22:00:42.238Z,-1.92
2023-01-26T22:03:08.637Z,-1.93
2023-01-26T22:05:35.058Z,-1.92
2023-01-26T22:08:01.904Z,-1.96
2023-01-26T22:10:28.380Z,-2.02
2023-01-26T22:12:54.885Z,-1.99
2023-01-26T22:15:21.235Z,-2.03
2023-01-26T22:17:47.784Z,-2.01
2023-01-26T22:20:14.504Z,-2.04
2023-01-26T22:22:41.177Z,-2.04
2023-01-26T22:25:10.109Z,-2.06
2023-01-26T22:27:39.769Z,-2.07
2023-01-26T22:30:07.015Z,-2.04
2023-01-26T22:32:33.482Z,-2.05
2023-01-26T22:34:59.909Z,-2.10
2023-01-26T22:37:26.501Z,-2.13
2023-01-26T22:39:52.835Z,-2.10
2023-01-26T22:42:21.381Z,-2.11
2023-01-26T22:44:47.779Z,-2.06
2023-01-26T22:47:14.235Z,-2.06
2023-01-26T22:49:40.683Z,-2.08
2023-01-26T22:52:09.806Z,-2.06
2023-01-26T22:54:36.272Z,-2.07
2023-01-26T22:57:02.664Z,-2.07
2023-01-26T22:59:29.048Z,-2.03
2023-01-26T23:01:56.962Z,-2.07
2023-01-26T23:04:23.643Z,-2.08
2023-01-26T23:06:50.162Z,-2.10
2023-01-26T23:09:16.839Z,-2.13
2023-01-26T23:11:43.581Z,-2.15
2023-01-26T23:14:09.965Z,-2.22
2023-01-26T23:16:36.620Z,-2.22
2023-01-26T23:19:03.297Z,-2.19
2023-01-26T23:21:29.735Z,-2.17
2023-01-26T23:23:56.658Z,-2.21
2023-01-26T23:26:24.589Z,-2.18
2023-01-26T23:28:51.144Z,-2.17
2023-01-26T23:31:19.650Z,-2.12
2023-01-26T23:33:46.754Z,-2.08
2023-01-26T23:36:14.168Z,-2.08
2023-01-26T23:38:41.252Z,-2.08
2023-01-26T23:41:07.922Z,-2.11
2023-01-26T23:43:34.667Z,-2.11
2023-01-26T23:46:01.103Z,-2.06
2023-01-26T23:48:27.694Z,-2.07
2023-01-26T23:50:58.641Z,-2.06
2023-01-26T23:53:25.228Z,-2.03
2023-01-26T23:55:52.541Z,-2.00
2023-01-26T23:58:19.460Z,-2.01
